sensor_id;sensor_type;location;lat;lon;timestamp;temperature;humidity
8422;DHT22;4248;48.196;10.924;2022-08-02T00:01:40;17.50;64.60
8422;DHT22;4248;48.196;10.924;2022-08-02T00:04:06;17.50;64.50
8422;DHT22;4248;48.196;10.924;2022-08-02T00:06:32;17.60;64.50
8422;DHT22;4248;48.196;10.924;2022-08-02T00:08:58;17.60;64.30
8422;DHT22;4248;48.196;10.924;2022-08-02T00:11:24;17.70;64.10
8422;DHT22;4248;48.196;10.924;2022-08-02T00:13:49;17.70;64.10
8422;DHT22;4248;48.196;10.924;2022-08-02T00:16:15;17.70;64.10
8422;DHT22;4248;48.196;10.924;2022-08-02T00:18:41;17.80;64.20
8422;DHT22;4248;48.196;10.924;2022-08-02T00:21:06;17.70;64.20
8422;DHT22;4248;48.196;10.924;2022-08-02T00:23:32;17.70;64.20
8422;DHT22;4248;48.196;10.924;2022-08-02T00:25:58;17.70;64.10
8422;DHT22;4248;48.196;10.924;2022-08-02T00:28:24;17.70;63.80
8422;DHT22;4248;48.196;10.924;2022-08-02T00:30:50;17.80;63.80
8422;DHT22;4248;48.196;10.924;2022-08-02T00:33:16;17.80;63.60
8422;DHT22;4248;48.196;10.924;2022-08-02T00:35:42;17.80;63.90
8422;DHT22;4248;48.196;10.924;2022-08-02T00:38:08;17.80;63.90
8422;DHT22;4248;48.196;10.924;2022-08-02T00:40:33;17.80;64.10
8422;DHT22;4248;48.196;10.924;2022-08-02T00:43:03;17.80;64.30
8422;DHT22;4248;48.196;10.924;2022-08-02T00:45:32;17.70;64.30
8422;DHT22;4248;48.196;10.924;2022-08-02T00:47:57;17.70;64.40
8422;DHT22;4248;48.196;10.924;2022-08-02T00:50:23;17.70;64.50
8422;DHT22;4248;48.196;10.924;2022-08-02T00:52:49;17.70;64.50
8422;DHT22;4248;48.196;10.924;2022-08-02T00:55:14;17.70;64.40
8422;DHT22;4248;48.196;10.924;2022-08-02T00:57:40;17.70;65.60
8422;DHT22;4248;48.196;10.924;2022-08-02T01:00:06;17.70;64.50
8422;DHT22;4248;48.196;10.924;2022-08-02T01:02:32;17.80;63.50
8422;DHT22;4248;48.196;10.924;2022-08-02T01:04:57;17.70;64.30
8422;DHT22;4248;48.196;10.924;2022-08-02T01:07:23;17.70;64.40
8422;DHT22;4248;48.196;10.924;2022-08-02T01:09:49;17.80;64.40
8422;DHT22;4248;48.196;10.924;2022-08-02T01:12:14;17.70;64.50
8422;DHT22;4248;48.196;10.924;2022-08-02T01:14:42;17.70;63.50
8422;DHT22;4248;48.196;10.924;2022-08-02T01:17:27;17.70;64.80
8422;DHT22;4248;48.196;10.924;2022-08-02T01:20:21;17.60;65.00
8422;DHT22;4248;48.196;10.924;2022-08-02T01:23:11;17.60;65.10
8422;DHT22;4248;48.196;10.924;2022-08-02T01:36:48;17.70;64.70
8422;DHT22;4248;48.196;10.924;2022-08-02T01:39:19;17.70;64.70
8422;DHT22;4248;48.196;10.924;2022-08-02T01:41:45;17.70;64.80
8422;DHT22;4248;48.196;10.924;2022-08-02T01:44:12;17.70;64.80
8422;DHT22;4248;48.196;10.924;2022-08-02T01:46:41;17.70;65.00
8422;DHT22;4248;48.196;10.924;2022-08-02T01:49:12;17.70;64.90
8422;DHT22;4248;48.196;10.924;2022-08-02T01:51:40;17.60;65.10
8422;DHT22;4248;48.196;10.924;2022-08-02T01:54:29;17.60;65.40
8422;DHT22;4248;48.196;10.924;2022-08-02T01:56:56;17.50;65.50
8422;DHT22;4248;48.196;10.924;2022-08-02T01:59:24;17.50;65.90
8422;DHT22;4248;48.196;10.924;2022-08-02T02:01:53;17.40;66.20
8422;DHT22;4248;48.196;10.924;2022-08-02T02:04:20;17.30;65.60
8422;DHT22;4248;48.196;10.924;2022-08-02T02:06:48;17.30;66.90
8422;DHT22;4248;48.196;10.924;2022-08-02T02:09:15;17.20;67.20
8422;DHT22;4248;48.196;10.924;2022-08-02T02:11:42;17.10;67.40
8422;DHT22;4248;48.196;10.924;2022-08-02T02:14:09;17.00;67.00
8422;DHT22;4248;48.196;10.924;2022-08-02T02:16:37;16.90;68.10
8422;DHT22;4248;48.196;10.924;2022-08-02T02:19:06;16.80;68.20
8422;DHT22;4248;48.196;10.924;2022-08-02T02:21:32;16.70;68.40
8422;DHT22;4248;48.196;10.924;2022-08-02T02:23:58;16.70;67.80
8422;DHT22;4248;48.196;10.924;2022-08-02T02:26:25;16.60;68.90
8422;DHT22;4248;48.196;10.924;2022-08-02T02:28:51;16.50;69.10
8422;DHT22;4248;48.196;10.924;2022-08-02T02:31:19;16.50;69.20
8422;DHT22;4248;48.196;10.924;2022-08-02T02:34:02;16.50;69.10
8422;DHT22;4248;48.196;10.924;2022-08-02T02:36:28;16.50;69.50
8422;DHT22;4248;48.196;10.924;2022-08-02T02:38:57;16.50;69.30
8422;DHT22;4248;48.196;10.924;2022-08-02T02:41:25;16.50;69.40
8422;DHT22;4248;48.196;10.924;2022-08-02T02:43:53;16.50;69.40
8422;DHT22;4248;48.196;10.924;2022-08-02T02:46:21;16.50;69.00
8422;DHT22;4248;48.196;10.924;2022-08-02T02:48:48;16.50;68.90
8422;DHT22;4248;48.196;10.924;2022-08-02T02:51:15;16.50;68.70
8422;DHT22;4248;48.196;10.924;2022-08-02T02:53:42;16.50;68.80
8422;DHT22;4248;48.196;10.924;2022-08-02T02:56:09;16.50;68.80
8422;DHT22;4248;48.196;10.924;2022-08-02T02:58:37;16.50;68.80
8422;DHT22;4248;48.196;10.924;2022-08-02T03:01:03;16.40;68.60
8422;DHT22;4248;48.196;10.924;2022-08-02T03:03:48;16.40;67.70
8422;DHT22;4248;48.196;10.924;2022-08-02T03:06:14;16.40;68.50
8422;DHT22;4248;48.196;10.924;2022-08-02T03:08:40;16.40;68.60
8422;DHT22;4248;48.196;10.924;2022-08-02T03:11:08;16.40;68.60
8422;DHT22;4248;48.196;10.924;2022-08-02T03:13:35;16.40;68.80
8422;DHT22;4248;48.196;10.924;2022-08-02T03:16:01;16.30;68.90
8422;DHT22;4248;48.196;10.924;2022-08-02T03:18:35;16.30;69.10
8422;DHT22;4248;48.196;10.924;2022-08-02T03:21:04;16.30;69.40
8422;DHT22;4248;48.196;10.924;2022-08-02T03:23:30;16.20;69.40
8422;DHT22;4248;48.196;10.924;2022-08-02T03:25:56;16.20;69.60
8422;DHT22;4248;48.196;10.924;2022-08-02T03:28:22;16.10;70.00
8422;DHT22;4248;48.196;10.924;2022-08-02T03:30:48;16.10;70.00
8422;DHT22;4248;48.196;10.924;2022-08-02T03:33:13;16.10;68.80
8422;DHT22;4248;48.196;10.924;2022-08-02T03:35:40;16.10;69.50
8422;DHT22;4248;48.196;10.924;2022-08-02T03:38:07;16.10;69.40
8422;DHT22;4248;48.196;10.924;2022-08-02T03:40:35;16.10;69.20
8422;DHT22;4248;48.196;10.924;2022-08-02T03:43:01;16.10;68.40
8422;DHT22;4248;48.196;10.924;2022-08-02T03:45:27;16.10;69.30
8422;DHT22;4248;48.196;10.924;2022-08-02T03:47:54;16.10;69.10
8422;DHT22;4248;48.196;10.924;2022-08-02T03:50:21;16.10;69.10
8422;DHT22;4248;48.196;10.924;2022-08-02T03:52:47;16.00;69.20
8422;DHT22;4248;48.196;10.924;2022-08-02T03:55:13;16.00;69.50
8422;DHT22;4248;48.196;10.924;2022-08-02T03:57:40;16.00;69.80
8422;DHT22;4248;48.196;10.924;2022-08-02T04:00:08;16.00;69.90
8422;DHT22;4248;48.196;10.924;2022-08-02T04:02:35;16.10;68.90
8422;DHT22;4248;48.196;10.924;2022-08-02T04:05:01;16.10;69.50
8422;DHT22;4248;48.196;10.924;2022-08-02T04:07:26;16.10;69.70
8422;DHT22;4248;48.196;10.924;2022-08-02T04:09:52;16.10;69.90
8422;DHT22;4248;48.196;10.924;2022-08-02T04:12:18;16.10;70.00
8422;DHT22;4248;48.196;10.924;2022-08-02T04:14:43;16.10;69.00
8422;DHT22;4248;48.196;10.924;2022-08-02T04:17:10;16.10;70.10
8422;DHT22;4248;48.196;10.924;2022-08-02T04:19:43;16.10;70.00
8422;DHT22;4248;48.196;10.924;2022-08-02T04:22:15;16.20;70.10
8422;DHT22;4248;48.196;10.924;2022-08-02T04:24:44;16.20;68.50
8422;DHT22;4248;48.196;10.924;2022-08-02T04:27:12;16.30;69.20
8422;DHT22;4248;48.196;10.924;2022-08-02T04:29:39;16.40;69.20
8422;DHT22;4248;48.196;10.924;2022-08-02T04:32:06;16.40;69.00
8422;DHT22;4248;48.196;10.924;2022-08-02T04:34:32;16.40;67.90
8422;DHT22;4248;48.196;10.924;2022-08-02T04:36:58;16.50;68.80
8422;DHT22;4248;48.196;10.924;2022-08-02T04:39:24;16.60;68.70
8422;DHT22;4248;48.196;10.924;2022-08-02T04:41:50;16.60;68.50
8422;DHT22;4248;48.196;10.924;2022-08-02T04:44:16;16.70;67.50
8422;DHT22;4248;48.196;10.924;2022-08-02T04:46:42;16.80;68.30
8422;DHT22;4248;48.196;10.924;2022-08-02T04:49:08;16.90;68.10
8422;DHT22;4248;48.196;10.924;2022-08-02T04:51:35;17.00;67.80
8422;DHT22;4248;48.196;10.924;2022-08-02T04:54:03;17.10;66.70
8422;DHT22;4248;48.196;10.924;2022-08-02T04:56:28;17.10;67.60
8422;DHT22;4248;48.196;10.924;2022-08-02T04:58:54;17.30;67.40
8422;DHT22;4248;48.196;10.924;2022-08-02T05:01:20;17.60;66.60
8422;DHT22;4248;48.196;10.924;2022-08-02T05:03:45;18.80;65.20
8422;DHT22;4248;48.196;10.924;2022-08-02T05:06:11;20.30;64.30
8422;DHT22;4248;48.196;10.924;2022-08-02T05:08:36;21.60;61.10
8422;DHT22;4248;48.196;10.924;2022-08-02T05:11:02;22.80;58.10
8422;DHT22;4248;48.196;10.924;2022-08-02T05:13:28;23.60;56.10
8422;DHT22;4248;48.196;10.924;2022-08-02T05:15:53;24.40;53.80
8422;DHT22;4248;48.196;10.924;2022-08-02T05:18:19;24.90;52.20
8422;DHT22;4248;48.196;10.924;2022-08-02T05:20:44;24.60;51.90
8422;DHT22;4248;48.196;10.924;2022-08-02T05:23:10;24.60;51.90
8422;DHT22;4248;48.196;10.924;2022-08-02T05:25:35;25.20;50.50
8422;DHT22;4248;48.196;10.924;2022-08-02T05:28:01;26.10;48.20
8422;DHT22;4248;48.196;10.924;2022-08-02T05:30:27;27.00;45.00
8422;DHT22;4248;48.196;10.924;2022-08-02T05:32:52;27.70;40.50
8422;DHT22;4248;48.196;10.924;2022-08-02T05:35:22;28.40;38.00
8422;DHT22;4248;48.196;10.924;2022-08-02T05:37:48;28.80;35.40
8422;DHT22;4248;48.196;10.924;2022-08-02T05:40:15;29.30;33.50
8422;DHT22;4248;48.196;10.924;2022-08-02T05:42:40;30.10;30.20
8422;DHT22;4248;48.196;10.924;2022-08-02T05:45:06;30.10;29.70
8422;DHT22;4248;48.196;10.924;2022-08-02T05:47:32;30.50;28.90
8422;DHT22;4248;48.196;10.924;2022-08-02T05:49:58;30.70;27.90
8422;DHT22;4248;48.196;10.924;2022-08-02T05:52:25;31.10;25.70
8422;DHT22;4248;48.196;10.924;2022-08-02T05:55:06;31.10;26.10
8422;DHT22;4248;48.196;10.924;2022-08-02T06:00:30;31.20;24.50
8422;DHT22;4248;48.196;10.924;2022-08-02T06:05:32;31.20;24.00
8422;DHT22;4248;48.196;10.924;2022-08-02T06:07:58;31.30;23.80
8422;DHT22;4248;48.196;10.924;2022-08-02T06:10:26;31.50;23.30
8422;DHT22;4248;48.196;10.924;2022-08-02T06:13:08;31.50;22.90
8422;DHT22;4248;48.196;10.924;2022-08-02T06:15:35;31.30;22.30
8422;DHT22;4248;48.196;10.924;2022-08-02T06:18:02;31.50;22.40
8422;DHT22;4248;48.196;10.924;2022-08-02T06:20:29;31.60;21.70
8422;DHT22;4248;48.196;10.924;2022-08-02T06:23:07;32.00;19.90
8422;DHT22;4248;48.196;10.924;2022-08-02T06:25:34;32.10;19.70
8422;DHT22;4248;48.196;10.924;2022-08-02T06:28:02;32.10;19.50
8422;DHT22;4248;48.196;10.924;2022-08-02T06:30:29;30.60;22.90
8422;DHT22;4248;48.196;10.924;2022-08-02T06:32:54;29.20;26.10
8422;DHT22;4248;48.196;10.924;2022-08-02T06:35:21;28.00;28.70
8422;DHT22;4248;48.196;10.924;2022-08-02T06:38:07;27.50;30.00
8422;DHT22;4248;48.196;10.924;2022-08-02T06:40:56;28.50;26.30
8422;DHT22;4248;48.196;10.924;2022-08-02T06:43:49;29.70;22.10
8422;DHT22;4248;48.196;10.924;2022-08-02T06:46:17;30.40;20.20
8422;DHT22;4248;48.196;10.924;2022-08-02T06:48:43;30.80;18.90
8422;DHT22;4248;48.196;10.924;2022-08-02T06:51:09;30.90;18.00
8422;DHT22;4248;48.196;10.924;2022-08-02T06:53:34;30.90;18.00
8422;DHT22;4248;48.196;10.924;2022-08-02T06:56:00;30.90;18.00
8422;DHT22;4248;48.196;10.924;2022-08-02T06:58:25;30.50;20.40
8422;DHT22;4248;48.196;10.924;2022-08-02T07:00:51;29.70;21.80
8422;DHT22;4248;48.196;10.924;2022-08-02T07:03:17;28.80;24.30
8422;DHT22;4248;48.196;10.924;2022-08-02T07:05:43;28.20;25.80
8422;DHT22;4248;48.196;10.924;2022-08-02T07:08:14;27.70;27.30
8422;DHT22;4248;48.196;10.924;2022-08-02T07:10:39;27.20;27.10
8422;DHT22;4248;48.196;10.924;2022-08-02T07:13:05;26.70;27.70
8422;DHT22;4248;48.196;10.924;2022-08-02T07:15:31;26.40;28.10
8422;DHT22;4248;48.196;10.924;2022-08-02T07:17:57;26.20;28.50
8422;DHT22;4248;48.196;10.924;2022-08-02T07:20:22;26.10;28.90
8422;DHT22;4248;48.196;10.924;2022-08-02T07:22:48;25.80;29.10
8422;DHT22;4248;48.196;10.924;2022-08-02T07:25:14;25.80;29.10
8422;DHT22;4248;48.196;10.924;2022-08-02T07:27:40;25.70;29.10
8422;DHT22;4248;48.196;10.924;2022-08-02T07:30:06;25.50;29.60
8422;DHT22;4248;48.196;10.924;2022-08-02T07:32:32;25.40;29.70
8422;DHT22;4248;48.196;10.924;2022-08-02T07:34:58;25.40;30.50
8422;DHT22;4248;48.196;10.924;2022-08-02T07:37:26;25.40;30.50
8422;DHT22;4248;48.196;10.924;2022-08-02T07:39:52;25.40;31.00
8422;DHT22;4248;48.196;10.924;2022-08-02T07:42:18;25.40;31.00
8422;DHT22;4248;48.196;10.924;2022-08-02T07:44:44;25.30;29.90
8422;DHT22;4248;48.196;10.924;2022-08-02T07:47:09;25.40;30.90
8422;DHT22;4248;48.196;10.924;2022-08-02T07:49:35;25.40;31.10
8422;DHT22;4248;48.196;10.924;2022-08-02T07:52:00;25.40;31.40
8422;DHT22;4248;48.196;10.924;2022-08-02T07:54:26;25.30;30.50
8422;DHT22;4248;48.196;10.924;2022-08-02T07:56:52;25.30;31.50
8422;DHT22;4248;48.196;10.924;2022-08-02T07:59:19;25.50;31.10
8422;DHT22;4248;48.196;10.924;2022-08-02T08:01:45;25.40;30.80
8422;DHT22;4248;48.196;10.924;2022-08-02T08:04:11;25.40;30.00
8422;DHT22;4248;48.196;10.924;2022-08-02T08:06:36;25.50;31.10
8422;DHT22;4248;48.196;10.924;2022-08-02T08:09:02;25.50;31.70
8422;DHT22;4248;48.196;10.924;2022-08-02T08:11:28;25.50;31.50
8422;DHT22;4248;48.196;10.924;2022-08-02T08:13:54;25.50;31.00
8422;DHT22;4248;48.196;10.924;2022-08-02T08:16:19;25.60;32.20
8422;DHT22;4248;48.196;10.924;2022-08-02T08:18:45;25.80;32.00
8422;DHT22;4248;48.196;10.924;2022-08-02T08:21:11;26.00;31.40
8422;DHT22;4248;48.196;10.924;2022-08-02T08:23:36;26.20;29.80
8422;DHT22;4248;48.196;10.924;2022-08-02T08:26:03;26.30;30.70
8422;DHT22;4248;48.196;10.924;2022-08-02T08:28:28;26.40;30.40
8422;DHT22;4248;48.196;10.924;2022-08-02T08:30:54;26.40;30.50
8422;DHT22;4248;48.196;10.924;2022-08-02T08:33:20;26.50;29.50
8422;DHT22;4248;48.196;10.924;2022-08-02T08:35:45;26.60;30.20
8422;DHT22;4248;48.196;10.924;2022-08-02T08:38:11;26.60;30.10
8422;DHT22;4248;48.196;10.924;2022-08-02T08:40:37;26.80;30.00
8422;DHT22;4248;48.196;10.924;2022-08-02T08:43:03;26.70;29.10
8422;DHT22;4248;48.196;10.924;2022-08-02T08:45:29;26.70;29.70
8422;DHT22;4248;48.196;10.924;2022-08-02T08:48:09;26.80;29.60
8422;DHT22;4248;48.196;10.924;2022-08-02T08:50:40;26.80;30.40
8422;DHT22;4248;48.196;10.924;2022-08-02T08:53:09;27.00;28.30
8422;DHT22;4248;48.196;10.924;2022-08-02T08:55:36;26.90;28.70
8422;DHT22;4248;48.196;10.924;2022-08-02T08:58:03;26.80;28.30
8422;DHT22;4248;48.196;10.924;2022-08-02T09:00:30;26.80;28.20
8422;DHT22;4248;48.196;10.924;2022-08-02T09:02:57;26.80;27.40
8422;DHT22;4248;48.196;10.924;2022-08-02T09:05:23;26.90;28.00
8422;DHT22;4248;48.196;10.924;2022-08-02T09:07:51;27.00;27.80
8422;DHT22;4248;48.196;10.924;2022-08-02T09:13:07;26.90;27.80
8422;DHT22;4248;48.196;10.924;2022-08-02T09:15:33;27.10;28.60
8422;DHT22;4248;48.196;10.924;2022-08-02T09:17:58;27.10;28.20
8422;DHT22;4248;48.196;10.924;2022-08-02T09:20:24;27.30;27.70
8422;DHT22;4248;48.196;10.924;2022-08-02T09:23:10;27.50;26.50
8422;DHT22;4248;48.196;10.924;2022-08-02T09:25:36;27.50;27.40
8422;DHT22;4248;48.196;10.924;2022-08-02T09:28:05;27.50;27.30
8422;DHT22;4248;48.196;10.924;2022-08-02T09:30:31;27.60;27.40
8422;DHT22;4248;48.196;10.924;2022-08-02T09:32:57;27.90;26.00
8422;DHT22;4248;48.196;10.924;2022-08-02T09:35:30;27.90;26.70
8422;DHT22;4248;48.196;10.924;2022-08-02T09:38:11;27.70;26.30
8422;DHT22;4248;48.196;10.924;2022-08-02T09:40:37;27.60;25.40
8422;DHT22;4248;48.196;10.924;2022-08-02T09:43:04;27.90;23.80
8422;DHT22;4248;48.196;10.924;2022-08-02T09:45:31;27.90;24.30
8422;DHT22;4248;48.196;10.924;2022-08-02T09:48:08;27.80;23.70
8422;DHT22;4248;48.196;10.924;2022-08-02T09:50:38;27.80;23.70
8422;DHT22;4248;48.196;10.924;2022-08-02T09:53:05;28.00;22.40
8422;DHT22;4248;48.196;10.924;2022-08-02T09:55:30;28.10;22.90
8422;DHT22;4248;48.196;10.924;2022-08-02T09:57:56;28.40;22.40
8422;DHT22;4248;48.196;10.924;2022-08-02T10:00:22;28.60;22.20
8422;DHT22;4248;48.196;10.924;2022-08-02T10:03:10;28.30;21.70
8422;DHT22;4248;48.196;10.924;2022-08-02T10:05:53;28.30;22.30
8422;DHT22;4248;48.196;10.924;2022-08-02T10:08:20;28.00;22.20
8422;DHT22;4248;48.196;10.924;2022-08-02T10:10:46;27.80;22.60
8422;DHT22;4248;48.196;10.924;2022-08-02T10:13:14;27.80;21.80
8422;DHT22;4248;48.196;10.924;2022-08-02T10:15:40;27.60;23.00
8422;DHT22;4248;48.196;10.924;2022-08-02T10:18:06;27.50;23.70
8422;DHT22;4248;48.196;10.924;2022-08-02T10:20:42;27.80;24.00
8422;DHT22;4248;48.196;10.924;2022-08-02T10:23:11;27.90;22.20
8422;DHT22;4248;48.196;10.924;2022-08-02T10:25:38;27.90;22.60
8422;DHT22;4248;48.196;10.924;2022-08-02T10:28:05;27.90;22.50
8422;DHT22;4248;48.196;10.924;2022-08-02T10:30:35;27.90;22.70
8422;DHT22;4248;48.196;10.924;2022-08-02T10:33:03;28.00;21.80
8422;DHT22;4248;48.196;10.924;2022-08-02T10:35:33;27.90;22.20
8422;DHT22;4248;48.196;10.924;2022-08-02T10:38:04;27.90;21.90
8422;DHT22;4248;48.196;10.924;2022-08-02T10:40:49;27.70;22.00
8422;DHT22;4248;48.196;10.924;2022-08-02T10:46:29;27.20;22.60
8422;DHT22;4248;48.196;10.924;2022-08-02T10:49:11;27.20;22.10
8422;DHT22;4248;48.196;10.924;2022-08-02T10:54:41;27.20;21.80
8422;DHT22;4248;48.196;10.924;2022-08-02T10:57:16;27.00;22.70
8422;DHT22;4248;48.196;10.924;2022-08-02T10:59:42;27.10;22.50
8422;DHT22;4248;48.196;10.924;2022-08-02T11:02:08;27.10;22.40
8422;DHT22;4248;48.196;10.924;2022-08-02T11:07:19;27.30;22.60
8422;DHT22;4248;48.196;10.924;2022-08-02T11:09:46;27.50;21.20
8422;DHT22;4248;48.196;10.924;2022-08-02T11:12:17;27.60;20.80
8422;DHT22;4248;48.196;10.924;2022-08-02T11:15:03;27.70;20.30
8422;DHT22;4248;48.196;10.924;2022-08-02T11:17:59;27.80;20.80
8422;DHT22;4248;48.196;10.924;2022-08-02T11:20:27;28.10;20.30
8422;DHT22;4248;48.196;10.924;2022-08-02T11:22:54;28.30;19.70
8422;DHT22;4248;48.196;10.924;2022-08-02T11:27:50;28.20;19.70
8422;DHT22;4248;48.196;10.924;2022-08-02T11:30:16;28.30;20.20
8422;DHT22;4248;48.196;10.924;2022-08-02T11:32:42;28.30;19.00
8422;DHT22;4248;48.196;10.924;2022-08-02T11:35:08;28.20;19.60
8422;DHT22;4248;48.196;10.924;2022-08-02T11:37:39;28.00;19.90
8422;DHT22;4248;48.196;10.924;2022-08-02T11:40:10;28.00;19.40
8422;DHT22;4248;48.196;10.924;2022-08-02T11:42:38;28.50;18.70
8422;DHT22;4248;48.196;10.924;2022-08-02T11:45:06;28.50;19.40
8422;DHT22;4248;48.196;10.924;2022-08-02T11:47:33;28.90;18.90
8422;DHT22;4248;48.196;10.924;2022-08-02T11:50:09;29.10;18.20
8422;DHT22;4248;48.196;10.924;2022-08-02T11:52:35;29.10;16.30
8422;DHT22;4248;48.196;10.924;2022-08-02T11:55:02;29.10;17.10
8422;DHT22;4248;48.196;10.924;2022-08-02T11:57:28;28.90;17.00
8422;DHT22;4248;48.196;10.924;2022-08-02T11:59:55;29.00;17.00
8422;DHT22;4248;48.196;10.924;2022-08-02T12:02:26;29.10;17.30
8422;DHT22;4248;48.196;10.924;2022-08-02T12:04:57;29.10;17.60
8422;DHT22;4248;48.196;10.924;2022-08-02T12:10:00;29.00;18.20
8422;DHT22;4248;48.196;10.924;2022-08-02T12:12:27;29.00;16.60
8422;DHT22;4248;48.196;10.924;2022-08-02T12:14:52;29.00;17.30
8422;DHT22;4248;48.196;10.924;2022-08-02T12:17:22;28.60;16.80
8422;DHT22;4248;48.196;10.924;2022-08-02T12:20:08;28.50;16.70
8422;DHT22;4248;48.196;10.924;2022-08-02T12:22:33;28.70;15.70
8422;DHT22;4248;48.196;10.924;2022-08-02T12:25:17;28.70;16.20
8422;DHT22;4248;48.196;10.924;2022-08-02T12:27:43;28.80;16.10
8422;DHT22;4248;48.196;10.924;2022-08-02T12:30:12;28.80;16.10
8422;DHT22;4248;48.196;10.924;2022-08-02T12:32:39;28.70;16.00
8422;DHT22;4248;48.196;10.924;2022-08-02T12:35:12;28.70;16.90
8422;DHT22;4248;48.196;10.924;2022-08-02T12:37:43;28.70;16.90
8422;DHT22;4248;48.196;10.924;2022-08-02T12:40:29;28.70;16.90
8422;DHT22;4248;48.196;10.924;2022-08-02T12:42:58;28.80;16.70
8422;DHT22;4248;48.196;10.924;2022-08-02T12:45:25;28.80;16.70
8422;DHT22;4248;48.196;10.924;2022-08-02T12:47:53;29.00;16.50
8422;DHT22;4248;48.196;10.924;2022-08-02T12:50:31;29.10;16.30
8422;DHT22;4248;48.196;10.924;2022-08-02T12:53:07;29.00;15.60
8422;DHT22;4248;48.196;10.924;2022-08-02T12:55:34;29.00;15.80
8422;DHT22;4248;48.196;10.924;2022-08-02T12:58:04;29.10;15.90
8422;DHT22;4248;48.196;10.924;2022-08-02T13:00:33;29.10;15.70
8422;DHT22;4248;48.196;10.924;2022-08-02T13:02:59;29.10;15.50
8422;DHT22;4248;48.196;10.924;2022-08-02T13:05:26;28.90;16.00
8422;DHT22;4248;48.196;10.924;2022-08-02T13:07:54;28.90;15.80
8422;DHT22;4248;48.196;10.924;2022-08-02T13:10:21;28.90;15.70
8422;DHT22;4248;48.196;10.924;2022-08-02T13:12:47;28.80;15.90
8422;DHT22;4248;48.196;10.924;2022-08-02T13:15:13;29.00;15.90
8422;DHT22;4248;48.196;10.924;2022-08-02T13:17:38;29.00;15.70
8422;DHT22;4248;48.196;10.924;2022-08-02T13:20:05;29.00;15.40
8422;DHT22;4248;48.196;10.924;2022-08-02T13:22:31;28.80;13.30
8422;DHT22;4248;48.196;10.924;2022-08-02T13:24:57;28.80;14.70
8422;DHT22;4248;48.196;10.924;2022-08-02T13:27:23;28.70;14.50
8422;DHT22;4248;48.196;10.924;2022-08-02T13:29:51;28.70;14.60
8422;DHT22;4248;48.196;10.924;2022-08-02T13:32:16;28.70;15.30
8422;DHT22;4248;48.196;10.924;2022-08-02T13:34:42;28.60;14.50
8422;DHT22;4248;48.196;10.924;2022-08-02T13:37:08;28.60;15.60
8422;DHT22;4248;48.196;10.924;2022-08-02T13:39:33;28.60;15.60
8422;DHT22;4248;48.196;10.924;2022-08-02T13:41:59;28.70;15.40
8422;DHT22;4248;48.196;10.924;2022-08-02T13:44:24;28.90;13.80
8422;DHT22;4248;48.196;10.924;2022-08-02T13:46:50;28.90;14.50
8422;DHT22;4248;48.196;10.924;2022-08-02T13:49:16;28.90;14.20
8422;DHT22;4248;48.196;10.924;2022-08-02T13:51:42;29.10;14.30
8422;DHT22;4248;48.196;10.924;2022-08-02T13:54:08;29.10;14.50
8422;DHT22;4248;48.196;10.924;2022-08-02T13:56:33;29.10;14.30
8422;DHT22;4248;48.196;10.924;2022-08-02T13:58:59;29.20;14.00
8422;DHT22;4248;48.196;10.924;2022-08-02T14:01:25;29.00;14.00
8422;DHT22;4248;48.196;10.924;2022-08-02T14:03:51;29.00;12.60
8422;DHT22;4248;48.196;10.924;2022-08-02T14:06:21;29.10;13.50
8422;DHT22;4248;48.196;10.924;2022-08-02T14:08:47;29.20;13.10
8422;DHT22;4248;48.196;10.924;2022-08-02T14:11:13;29.20;12.90
8422;DHT22;4248;48.196;10.924;2022-08-02T14:13:39;29.30;12.80
8422;DHT22;4248;48.196;10.924;2022-08-02T14:16:04;29.40;12.80
8422;DHT22;4248;48.196;10.924;2022-08-02T14:18:30;29.50;12.90
8422;DHT22;4248;48.196;10.924;2022-08-02T14:20:56;29.50;13.00
8422;DHT22;4248;48.196;10.924;2022-08-02T14:23:21;29.60;13.10
8422;DHT22;4248;48.196;10.924;2022-08-02T14:25:47;29.60;12.90
8422;DHT22;4248;48.196;10.924;2022-08-02T14:28:13;29.40;13.10
8422;DHT22;4248;48.196;10.924;2022-08-02T14:30:38;29.20;13.40
8422;DHT22;4248;48.196;10.924;2022-08-02T14:33:04;29.20;13.80
8422;DHT22;4248;48.196;10.924;2022-08-02T14:35:30;29.20;13.80
8422;DHT22;4248;48.196;10.924;2022-08-02T14:37:56;29.30;13.70
8422;DHT22;4248;48.196;10.924;2022-08-02T14:40:22;29.50;13.40
8422;DHT22;4248;48.196;10.924;2022-08-02T14:42:48;29.60;12.90
8422;DHT22;4248;48.196;10.924;2022-08-02T14:45:16;29.70;12.80
8422;DHT22;4248;48.196;10.924;2022-08-02T14:47:43;29.80;12.30
8422;DHT22;4248;48.196;10.924;2022-08-02T14:50:08;29.80;11.80
8422;DHT22;4248;48.196;10.924;2022-08-02T14:52:35;29.50;11.10
8422;DHT22;4248;48.196;10.924;2022-08-02T14:55:02;29.40;11.90
8422;DHT22;4248;48.196;10.924;2022-08-02T14:57:30;29.30;12.00
8422;DHT22;4248;48.196;10.924;2022-08-02T14:59:56;29.20;12.00
8422;DHT22;4248;48.196;10.924;2022-08-02T15:02:25;29.20;11.90
8422;DHT22;4248;48.196;10.924;2022-08-02T15:04:51;29.30;11.50
8422;DHT22;4248;48.196;10.924;2022-08-02T15:07:16;29.40;11.40
8422;DHT22;4248;48.196;10.924;2022-08-02T15:09:42;29.40;11.30
8422;DHT22;4248;48.196;10.924;2022-08-02T15:12:09;29.50;11.20
8422;DHT22;4248;48.196;10.924;2022-08-02T15:14:36;29.40;11.00
8422;DHT22;4248;48.196;10.924;2022-08-02T15:17:01;29.40;10.80
8422;DHT22;4248;48.196;10.924;2022-08-02T15:19:28;29.50;10.60
8422;DHT22;4248;48.196;10.924;2022-08-02T15:21:54;29.40;10.50
8422;DHT22;4248;48.196;10.924;2022-08-02T15:24:19;29.50;10.50
8422;DHT22;4248;48.196;10.924;2022-08-02T15:26:45;29.50;10.60
8422;DHT22;4248;48.196;10.924;2022-08-02T15:29:10;29.70;10.50
8422;DHT22;4248;48.196;10.924;2022-08-02T15:31:36;29.40;10.30
8422;DHT22;4248;48.196;10.924;2022-08-02T15:34:02;29.30;10.30
8422;DHT22;4248;48.196;10.924;2022-08-02T15:36:27;29.20;10.40
8422;DHT22;4248;48.196;10.924;2022-08-02T15:38:53;29.20;10.50
8422;DHT22;4248;48.196;10.924;2022-08-02T15:41:19;29.10;10.60
8422;DHT22;4248;48.196;10.924;2022-08-02T15:43:45;29.00;10.10
8422;DHT22;4248;48.196;10.924;2022-08-02T15:46:10;29.00;11.20
8422;DHT22;4248;48.196;10.924;2022-08-02T15:48:36;29.00;11.40
8422;DHT22;4248;48.196;10.924;2022-08-02T15:51:01;29.00;11.50
8422;DHT22;4248;48.196;10.924;2022-08-02T15:53:27;29.00;10.50
8422;DHT22;4248;48.196;10.924;2022-08-02T15:55:53;29.20;11.40
8422;DHT22;4248;48.196;10.924;2022-08-02T15:58:19;29.20;11.30
8422;DHT22;4248;48.196;10.924;2022-08-02T16:00:45;29.10;11.30
8422;DHT22;4248;48.196;10.924;2022-08-02T16:03:10;29.20;10.50
8422;DHT22;4248;48.196;10.924;2022-08-02T16:05:36;29.20;11.50
8422;DHT22;4248;48.196;10.924;2022-08-02T16:08:02;29.20;11.40
8422;DHT22;4248;48.196;10.924;2022-08-02T16:10:27;29.10;11.20
8422;DHT22;4248;48.196;10.924;2022-08-02T16:12:53;29.10;11.30
8422;DHT22;4248;48.196;10.924;2022-08-02T16:15:38;29.10;11.50
8422;DHT22;4248;48.196;10.924;2022-08-02T16:18:04;29.00;11.90
8422;DHT22;4248;48.196;10.924;2022-08-02T16:20:29;28.90;11.90
8422;DHT22;4248;48.196;10.924;2022-08-02T16:22:55;28.90;11.90